sensor_id;sensor_type;location;lat;lon;timestamp;P1;durP1;ratioP1;P2;durP2;ratioP2
22388;SDS011;11362;48.102;11.620;2023-11-21T00:01:44;3.10;;;1.73;;
22388;SDS011;11362;48.102;11.620;2023-11-21T00:04:09;3.53;;;1.47;;
22388;SDS011;11362;48.102;11.620;2023-11-21T00:06:35;2.57;;;1.67;;
22388;SDS011;11362;48.102;11.620;2023-11-21T00:09:00;6.00;;;1.57;;
22388;SDS011;11362;48.102;11.620;2023-11-21T00:11:25;2.80;;;1.60;;
22388;SDS011;11362;48.102;11.620;2023-11-21T00:13:51;5.60;;;1.70;;
22388;SDS011;11362;48.102;11.620;2023-11-21T00:16:16;6.00;;;1.93;;
22388;SDS011;11362;48.102;11.620;2023-11-21T00:18:41;2.50;;;1.80;;
22388;SDS011;11362;48.102;11.620;2023-11-21T00:21:07;3.93;;;1.90;;
22388;SDS011;11362;48.102;11.620;2023-11-21T00:23:32;3.73;;;1.70;;
22388;SDS011;11362;48.102;11.620;2023-11-21T00:25:57;2.80;;;1.47;;
22388;SDS011;11362;48.102;11.620;2023-11-21T00:28:23;4.47;;;1.83;;
22388;SDS011;11362;48.102;11.620;2023-11-21T00:30:48;5.33;;;1.90;;
22388;SDS011;11362;48.102;11.620;2023-11-21T00:33:13;3.47;;;1.23;;
22388;SDS011;11362;48.102;11.620;2023-11-21T00:35:38;3.23;;;1.37;;
22388;SDS011;11362;48.102;11.620;2023-11-21T00:38:04;4.33;;;2.03;;
22388;SDS011;11362;48.102;11.620;2023-11-21T00:40:29;3.90;;;1.73;;
22388;SDS011;11362;48.102;11.620;2023-11-21T00:42:54;1.53;;;1.27;;
22388;SDS011;11362;48.102;11.620;2023-11-21T00:45:20;2.73;;;1.60;;
22388;SDS011;11362;48.102;11.620;2023-11-21T00:47:45;2.33;;;1.70;;
22388;SDS011;11362;48.102;11.620;2023-11-21T00:50:10;2.27;;;1.40;;
22388;SDS011;11362;48.102;11.620;2023-11-21T00:52:35;2.67;;;1.40;;
22388;SDS011;11362;48.102;11.620;2023-11-21T00:55:01;3.33;;;1.30;;
22388;SDS011;11362;48.102;11.620;2023-11-21T00:57:27;4.70;;;1.67;;
22388;SDS011;11362;48.102;11.620;2023-11-21T00:59:52;3.27;;;1.47;;
22388;SDS011;11362;48.102;11.620;2023-11-21T01:02:17;1.63;;;1.43;;
22388;SDS011;11362;48.102;11.620;2023-11-21T01:04:42;2.73;;;1.63;;
22388;SDS011;11362;48.102;11.620;2023-11-21T01:07:08;2.43;;;1.53;;
22388;SDS011;11362;48.102;11.620;2023-11-21T01:09:33;3.63;;;1.70;;
22388;SDS011;11362;48.102;11.620;2023-11-21T01:11:58;2.67;;;1.37;;
22388;SDS011;11362;48.102;11.620;2023-11-21T01:14:24;3.07;;;1.60;;
22388;SDS011;11362;48.102;11.620;2023-11-21T01:16:49;2.57;;;1.57;;
22388;SDS011;11362;48.102;11.620;2023-11-21T01:19:14;3.70;;;1.37;;
22388;SDS011;11362;48.102;11.620;2023-11-21T01:21:39;1.60;;;1.43;;
22388;SDS011;11362;48.102;11.620;2023-11-21T01:24:05;3.70;;;1.30;;
22388;SDS011;11362;48.102;11.620;2023-11-21T01:26:30;2.43;;;1.50;;
22388;SDS011;11362;48.102;11.620;2023-11-21T01:28:55;3.83;;;1.37;;
22388;SDS011;11362;48.102;11.620;2023-11-21T01:31:21;3.37;;;1.40;;
22388;SDS011;11362;48.102;11.620;2023-11-21T01:33:46;3.00;;;1.67;;
22388;SDS011;11362;48.102;11.620;2023-11-21T01:36:11;2.03;;;1.40;;
22388;SDS011;11362;48.102;11.620;2023-11-21T01:38:37;2.27;;;1.50;;
22388;SDS011;11362;48.102;11.620;2023-11-21T01:41:02;2.20;;;1.20;;
22388;SDS011;11362;48.102;11.620;2023-11-21T01:43:27;2.77;;;1.27;;
22388;SDS011;11362;48.102;11.620;2023-11-21T01:45:55;4.93;;;1.73;;
22388;SDS011;11362;48.102;11.620;2023-11-21T01:48:21;1.73;;;1.20;;
22388;SDS011;11362;48.102;11.620;2023-11-21T01:50:46;2.60;;;1.57;;
22388;SDS011;11362;48.102;11.620;2023-11-21T01:53:12;1.60;;;1.23;;
22388;SDS011;11362;48.102;11.620;2023-11-21T01:55:37;2.53;;;1.23;;
22388;SDS011;11362;48.102;11.620;2023-11-21T01:58:04;1.90;;;1.50;;
22388;SDS011;11362;48.102;11.620;2023-11-21T02:00:30;1.37;;;1.20;;
22388;SDS011;11362;48.102;11.620;2023-11-21T02:02:55;2.07;;;1.20;;
22388;SDS011;11362;48.102;11.620;2023-11-21T02:05:20;1.70;;;1.00;;
22388;SDS011;11362;48.102;11.620;2023-11-21T02:07:46;3.23;;;1.30;;
22388;SDS011;11362;48.102;11.620;2023-11-21T02:10:12;2.07;;;1.27;;
22388;SDS011;11362;48.102;11.620;2023-11-21T02:12:37;7.07;;;1.10;;
22388;SDS011;11362;48.102;11.620;2023-11-21T02:15:02;2.87;;;1.00;;
22388;SDS011;11362;48.102;11.620;2023-11-21T02:17:28;3.07;;;1.43;;
22388;SDS011;11362;48.102;11.620;2023-11-21T02:19:53;2.70;;;1.10;;
22388;SDS011;11362;48.102;11.620;2023-11-21T02:22:19;1.90;;;1.10;;
22388;SDS011;11362;48.102;11.620;2023-11-21T02:24:45;3.53;;;1.17;;
22388;SDS011;11362;48.102;11.620;2023-11-21T02:27:11;3.13;;;1.00;;
22388;SDS011;11362;48.102;11.620;2023-11-21T02:29:38;2.23;;;1.00;;
22388;SDS011;11362;48.102;11.620;2023-11-21T02:32:03;3.13;;;1.30;;
22388;SDS011;11362;48.102;11.620;2023-11-21T02:34:28;1.77;;;1.03;;
22388;SDS011;11362;48.102;11.620;2023-11-21T02:36:54;2.70;;;1.23;;
22388;SDS011;11362;48.102;11.620;2023-11-21T02:39:19;1.70;;;1.00;;
22388;SDS011;11362;48.102;11.620;2023-11-21T02:41:44;2.27;;;1.13;;
22388;SDS011;11362;48.102;11.620;2023-11-21T02:44:10;1.17;;;0.70;;
22388;SDS011;11362;48.102;11.620;2023-11-21T02:46:35;3.03;;;1.10;;
22388;SDS011;11362;48.102;11.620;2023-11-21T02:49:04;1.40;;;1.10;;
22388;SDS011;11362;48.102;11.620;2023-11-21T02:51:30;1.77;;;0.87;;
22388;SDS011;11362;48.102;11.620;2023-11-21T02:53:55;1.27;;;1.03;;
22388;SDS011;11362;48.102;11.620;2023-11-21T02:56:21;1.80;;;1.03;;
22388;SDS011;11362;48.102;11.620;2023-11-21T02:58:46;2.00;;;1.00;;
22388;SDS011;11362;48.102;11.620;2023-11-21T03:01:11;1.23;;;0.80;;
22388;SDS011;11362;48.102;11.620;2023-11-21T03:03:37;2.70;;;1.00;;
22388;SDS011;11362;48.102;11.620;2023-11-21T03:06:03;1.43;;;0.83;;
22388;SDS011;11362;48.102;11.620;2023-11-21T03:08:29;0.97;;;0.93;;
22388;SDS011;11362;48.102;11.620;2023-11-21T03:10:54;1.93;;;0.97;;
22388;SDS011;11362;48.102;11.620;2023-11-21T03:13:20;1.57;;;1.30;;
22388;SDS011;11362;48.102;11.620;2023-11-21T03:15:45;0.97;;;0.90;;
22388;SDS011;11362;48.102;11.620;2023-11-21T03:18:10;1.00;;;0.90;;
22388;SDS011;11362;48.102;11.620;2023-11-21T03:20:35;3.40;;;1.03;;
22388;SDS011;11362;48.102;11.620;2023-11-21T03:23:01;1.63;;;0.93;;
22388;SDS011;11362;48.102;11.620;2023-11-21T03:25:26;2.03;;;0.83;;
22388;SDS011;11362;48.102;11.620;2023-11-21T03:27:52;1.10;;;1.00;;
22388;SDS011;11362;48.102;11.620;2023-11-21T03:30:17;0.97;;;0.80;;
22388;SDS011;11362;48.102;11.620;2023-11-21T03:32:43;1.20;;;0.93;;
22388;SDS011;11362;48.102;11.620;2023-11-21T03:35:08;1.50;;;0.97;;
22388;SDS011;11362;48.102;11.620;2023-11-21T03:37:33;1.10;;;0.90;;
22388;SDS011;11362;48.102;11.620;2023-11-21T03:39:58;0.70;;;0.70;;
22388;SDS011;11362;48.102;11.620;2023-11-21T03:42:24;0.90;;;0.70;;
22388;SDS011;11362;48.102;11.620;2023-11-21T03:44:49;0.90;;;0.77;;
22388;SDS011;11362;48.102;11.620;2023-11-21T03:47:14;1.47;;;0.97;;
22388;SDS011;11362;48.102;11.620;2023-11-21T03:49:40;1.93;;;0.90;;
22388;SDS011;11362;48.102;11.620;2023-11-21T03:52:05;1.43;;;1.00;;
22388;SDS011;11362;48.102;11.620;2023-11-21T03:54:30;0.80;;;0.77;;
22388;SDS011;11362;48.102;11.620;2023-11-21T03:56:56;0.73;;;0.70;;
22388;SDS011;11362;48.102;11.620;2023-11-21T03:59:21;0.63;;;0.63;;
22388;SDS011;11362;48.102;11.620;2023-11-21T04:01:46;0.80;;;0.80;;
22388;SDS011;11362;48.102;11.620;2023-11-21T04:04:12;0.90;;;0.73;;
22388;SDS011;11362;48.102;11.620;2023-11-21T04:06:37;2.57;;;0.67;;
22388;SDS011;11362;48.102;11.620;2023-11-21T04:09:02;1.43;;;0.97;;
22388;SDS011;11362;48.102;11.620;2023-11-21T04:11:27;1.20;;;0.87;;
22388;SDS011;11362;48.102;11.620;2023-11-21T04:13:53;0.90;;;0.73;;
22388;SDS011;11362;48.102;11.620;2023-11-21T04:16:18;0.70;;;0.60;;
22388;SDS011;11362;48.102;11.620;2023-11-21T04:18:43;1.67;;;0.70;;
22388;SDS011;11362;48.102;11.620;2023-11-21T04:21:09;0.80;;;0.80;;
22388;SDS011;11362;48.102;11.620;2023-11-21T04:23:34;1.33;;;0.90;;
22388;SDS011;11362;48.102;11.620;2023-11-21T04:26:00;0.80;;;0.80;;
22388;SDS011;11362;48.102;11.620;2023-11-21T04:28:25;0.97;;;0.80;;
22388;SDS011;11362;48.102;11.620;2023-11-21T04:30:51;0.93;;;0.67;;
22388;SDS011;11362;48.102;11.620;2023-11-21T04:33:16;0.90;;;0.80;;
22388;SDS011;11362;48.102;11.620;2023-11-21T04:35:42;0.93;;;0.87;;
22388;SDS011;11362;48.102;11.620;2023-11-21T04:38:07;1.33;;;0.93;;
22388;SDS011;11362;48.102;11.620;2023-11-21T04:40:32;1.07;;;0.70;;
22388;SDS011;11362;48.102;11.620;2023-11-21T04:42:58;0.70;;;0.60;;
22388;SDS011;11362;48.102;11.620;2023-11-21T04:45:23;0.70;;;0.50;;
22388;SDS011;11362;48.102;11.620;2023-11-21T04:47:48;1.63;;;0.80;;
22388;SDS011;11362;48.102;11.620;2023-11-21T04:50:14;0.90;;;0.73;;
22388;SDS011;11362;48.102;11.620;2023-11-21T04:52:39;1.60;;;1.13;;
22388;SDS011;11362;48.102;11.620;2023-11-21T04:55:05;0.90;;;0.67;;
22388;SDS011;11362;48.102;11.620;2023-11-21T04:57:30;0.87;;;0.80;;
22388;SDS011;11362;48.102;11.620;2023-11-21T04:59:55;1.23;;;0.77;;
22388;SDS011;11362;48.102;11.620;2023-11-21T05:02:21;0.70;;;0.53;;
22388;SDS011;11362;48.102;11.620;2023-11-21T05:04:46;1.33;;;0.77;;
22388;SDS011;11362;48.102;11.620;2023-11-21T05:07:12;0.50;;;0.50;;
22388;SDS011;11362;48.102;11.620;2023-11-21T05:09:40;0.70;;;0.70;;
22388;SDS011;11362;48.102;11.620;2023-11-21T05:12:06;0.60;;;0.60;;
22388;SDS011;11362;48.102;11.620;2023-11-21T05:14:32;1.10;;;0.70;;
22388;SDS011;11362;48.102;11.620;2023-11-21T05:16:57;0.87;;;0.70;;
22388;SDS011;11362;48.102;11.620;2023-11-21T05:19:23;0.60;;;0.60;;
22388;SDS011;11362;48.102;11.620;2023-11-21T05:21:48;0.70;;;0.70;;
22388;SDS011;11362;48.102;11.620;2023-11-21T05:24:13;0.60;;;0.50;;
22388;SDS011;11362;48.102;11.620;2023-11-21T05:26:38;1.17;;;0.70;;
22388;SDS011;11362;48.102;11.620;2023-11-21T05:29:04;0.70;;;0.70;;
22388;SDS011;11362;48.102;11.620;2023-11-21T05:31:29;0.50;;;0.50;;
22388;SDS011;11362;48.102;11.620;2023-11-21T05:33:54;1.53;;;0.80;;
22388;SDS011;11362;48.102;11.620;2023-11-21T05:36:20;0.93;;;0.70;;
22388;SDS011;11362;48.102;11.620;2023-11-21T05:38:45;0.83;;;0.57;;
22388;SDS011;11362;48.102;11.620;2023-11-21T05:41:11;0.70;;;0.70;;
22388;SDS011;11362;48.102;11.620;2023-11-21T05:43:36;1.03;;;0.63;;
22388;SDS011;11362;48.102;11.620;2023-11-21T05:46:01;0.63;;;0.63;;
22388;SDS011;11362;48.102;11.620;2023-11-21T05:48:27;0.97;;;0.67;;
22388;SDS011;11362;48.102;11.620;2023-11-21T05:50:52;0.63;;;0.63;;
22388;SDS011;11362;48.102;11.620;2023-11-21T05:53:18;0.97;;;0.73;;
22388;SDS011;11362;48.102;11.620;2023-11-21T05:55:43;0.40;;;0.40;;
22388;SDS011;11362;48.102;11.620;2023-11-21T05:58:08;0.50;;;0.50;;
22388;SDS011;11362;48.102;11.620;2023-11-21T06:00:34;0.50;;;0.50;;
22388;SDS011;11362;48.102;11.620;2023-11-21T06:02:59;0.73;;;0.60;;
22388;SDS011;11362;48.102;11.620;2023-11-21T06:05:25;1.13;;;0.70;;
22388;SDS011;11362;48.102;11.620;2023-11-21T06:07:51;3.47;;;0.60;;
22388;SDS011;11362;48.102;11.620;2023-11-21T06:10:19;4.13;;;0.87;;
22388;SDS011;11362;48.102;11.620;2023-11-21T06:12:45;1.53;;;0.83;;
22388;SDS011;11362;48.102;11.620;2023-11-21T06:15:10;1.57;;;0.80;;
22388;SDS011;11362;48.102;11.620;2023-11-21T06:17:36;3.43;;;0.77;;
22388;SDS011;11362;48.102;11.620;2023-11-21T06:20:02;1.87;;;0.93;;
22388;SDS011;11362;48.102;11.620;2023-11-21T06:22:31;4.20;;;1.00;;
22388;SDS011;11362;48.102;11.620;2023-11-21T06:24:56;4.00;;;0.87;;
22388;SDS011;11362;48.102;11.620;2023-11-21T06:27:21;6.27;;;1.10;;
22388;SDS011;11362;48.102;11.620;2023-11-21T06:29:47;13.00;;;1.20;;
22388;SDS011;11362;48.102;11.620;2023-11-21T06:32:12;12.57;;;1.50;;
22388;SDS011;11362;48.102;11.620;2023-11-21T06:34:38;11.93;;;1.90;;
22388;SDS011;11362;48.102;11.620;2023-11-21T06:37:03;10.37;;;1.70;;
22388;SDS011;11362;48.102;11.620;2023-11-21T06:39:28;6.47;;;1.20;;
22388;SDS011;11362;48.102;11.620;2023-11-21T06:41:54;13.50;;;1.37;;
22388;SDS011;11362;48.102;11.620;2023-11-21T06:44:19;17.10;;;1.60;;
22388;SDS011;11362;48.102;11.620;2023-11-21T06:46:44;20.40;;;2.70;;
22388;SDS011;11362;48.102;11.620;2023-11-21T06:49:10;17.87;;;2.60;;
22388;SDS011;11362;48.102;11.620;2023-11-21T06:51:35;9.17;;;2.03;;
22388;SDS011;11362;48.102;11.620;2023-11-21T06:54:00;9.83;;;2.23;;
22388;SDS011;11362;48.102;11.620;2023-11-21T06:56:25;19.73;;;3.20;;
22388;SDS011;11362;48.102;11.620;2023-11-21T06:58:51;15.33;;;2.93;;
22388;SDS011;11362;48.102;11.620;2023-11-21T07:01:16;16.40;;;2.50;;
22388;SDS011;11362;48.102;11.620;2023-11-21T07:03:41;17.20;;;2.07;;
22388;SDS011;11362;48.102;11.620;2023-11-21T07:06:07;8.40;;;1.93;;
22388;SDS011;11362;48.102;11.620;2023-11-21T07:08:33;14.13;;;2.63;;
22388;SDS011;11362;48.102;11.620;2023-11-21T07:10:58;10.07;;;2.43;;
22388;SDS011;11362;48.102;11.620;2023-11-21T07:13:23;15.07;;;2.17;;
22388;SDS011;11362;48.102;11.620;2023-11-21T07:15:49;9.57;;;2.40;;
22388;SDS011;11362;48.102;11.620;2023-11-21T07:18:14;9.33;;;1.57;;
22388;SDS011;11362;48.102;11.620;2023-11-21T07:20:39;6.57;;;1.20;;
22388;SDS011;11362;48.102;11.620;2023-11-21T07:23:04;5.60;;;1.30;;
22388;SDS011;11362;48.102;11.620;2023-11-21T07:25:30;5.23;;;1.43;;
22388;SDS011;11362;48.102;11.620;2023-11-21T07:27:55;2.40;;;1.30;;
22388;SDS011;11362;48.102;11.620;2023-11-21T07:30:20;8.60;;;1.27;;
22388;SDS011;11362;48.102;11.620;2023-11-21T07:32:45;8.67;;;1.87;;
22388;SDS011;11362;48.102;11.620;2023-11-21T07:35:11;11.10;;;2.43;;
22388;SDS011;11362;48.102;11.620;2023-11-21T07:37:37;19.37;;;2.23;;
22388;SDS011;11362;48.102;11.620;2023-11-21T07:40:03;11.20;;;1.83;;
22388;SDS011;11362;48.102;11.620;2023-11-21T07:42:28;9.13;;;1.83;;
22388;SDS011;11362;48.102;11.620;2023-11-21T07:44:53;9.17;;;1.80;;
22388;SDS011;11362;48.102;11.620;2023-11-21T07:47:19;13.00;;;1.80;;
22388;SDS011;11362;48.102;11.620;2023-11-21T07:49:44;11.33;;;1.50;;
22388;SDS011;11362;48.102;11.620;2023-11-21T07:52:09;8.77;;;1.70;;
22388;SDS011;11362;48.102;11.620;2023-11-21T07:54:35;8.77;;;1.57;;
22388;SDS011;11362;48.102;11.620;2023-11-21T07:57:00;5.33;;;1.40;;
22388;SDS011;11362;48.102;11.620;2023-11-21T07:59:26;8.93;;;1.67;;
22388;SDS011;11362;48.102;11.620;2023-11-21T08:01:51;3.13;;;1.40;;
22388;SDS011;11362;48.102;11.620;2023-11-21T08:04:16;3.80;;;1.33;;
22388;SDS011;11362;48.102;11.620;2023-11-21T08:06:42;6.43;;;1.10;;
22388;SDS011;11362;48.102;11.620;2023-11-21T08:09:07;6.50;;;1.30;;
22388;SDS011;11362;48.102;11.620;2023-11-21T08:11:32;4.63;;;1.30;;
22388;SDS011;11362;48.102;11.620;2023-11-21T08:13:57;6.33;;;1.37;;
22388;SDS011;11362;48.102;11.620;2023-11-21T08:16:23;5.50;;;1.80;;
22388;SDS011;11362;48.102;11.620;2023-11-21T08:18:48;4.33;;;1.13;;
22388;SDS011;11362;48.102;11.620;2023-11-21T08:21:13;4.67;;;1.40;;
22388;SDS011;11362;48.102;11.620;2023-11-21T08:23:38;4.97;;;1.30;;
22388;SDS011;11362;48.102;11.620;2023-11-21T08:26:04;2.77;;;1.27;;
22388;SDS011;11362;48.102;11.620;2023-11-21T08:28:30;3.17;;;1.30;;
22388;SDS011;11362;48.102;11.620;2023-11-21T08:30:55;7.03;;;1.50;;
22388;SDS011;11362;48.102;11.620;2023-11-21T08:33:20;2.77;;;1.43;;
22388;SDS011;11362;48.102;11.620;2023-11-21T08:35:45;1.37;;;1.07;;
22388;SDS011;11362;48.102;11.620;2023-11-21T08:38:11;3.83;;;1.53;;
22388;SDS011;11362;48.102;11.620;2023-11-21T08:40:37;2.97;;;0.80;;
22388;SDS011;11362;48.102;11.620;2023-11-21T08:43:03;5.03;;;1.30;;
22388;SDS011;11362;48.102;11.620;2023-11-21T08:45:28;3.13;;;1.17;;
22388;SDS011;11362;48.102;11.620;2023-11-21T08:47:53;1.40;;;0.80;;
22388;SDS011;11362;48.102;11.620;2023-11-21T08:50:18;3.10;;;1.07;;
22388;SDS011;11362;48.102;11.620;2023-11-21T08:52:44;1.57;;;1.00;;
22388;SDS011;11362;48.102;11.620;2023-11-21T08:55:10;7.93;;;1.07;;
22388;SDS011;11362;48.102;11.620;2023-11-21T08:57:35;8.10;;;1.07;;
22388;SDS011;11362;48.102;11.620;2023-11-21T09:00:02;6.37;;;1.40;;
22388;SDS011;11362;48.102;11.620;2023-11-21T09:02:28;5.70;;;1.00;;
22388;SDS011;11362;48.102;11.620;2023-11-21T09:04:53;6.07;;;1.10;;
22388;SDS011;11362;48.102;11.620;2023-11-21T09:07:19;4.97;;;1.63;;
22388;SDS011;11362;48.102;11.620;2023-11-21T09:09:44;2.90;;;1.27;;
22388;SDS011;11362;48.102;11.620;2023-11-21T09:12:10;7.73;;;1.27;;
22388;SDS011;11362;48.102;11.620;2023-11-21T09:14:35;5.73;;;1.53;;
22388;SDS011;11362;48.102;11.620;2023-11-21T09:17:00;3.87;;;1.30;;
22388;SDS011;11362;48.102;11.620;2023-11-21T09:19:25;2.83;;;1.10;;
22388;SDS011;11362;48.102;11.620;2023-11-21T09:21:51;6.97;;;1.33;;
22388;SDS011;11362;48.102;11.620;2023-11-21T09:24:16;3.00;;;1.20;;
22388;SDS011;11362;48.102;11.620;2023-11-21T09:26:41;3.07;;;0.73;;
22388;SDS011;11362;48.102;11.620;2023-11-21T09:29:06;5.63;;;1.13;;
22388;SDS011;11362;48.102;11.620;2023-11-21T09:31:32;3.27;;;1.43;;
22388;SDS011;11362;48.102;11.620;2023-11-21T09:33:57;10.20;;;1.53;;
22388;SDS011;11362;48.102;11.620;2023-11-21T09:36:22;9.47;;;1.20;;
22388;SDS011;11362;48.102;11.620;2023-11-21T09:38:48;3.70;;;1.13;;
22388;SDS011;11362;48.102;11.620;2023-11-21T09:41:21;7.30;;;1.40;;
22388;SDS011;11362;48.102;11.620;2023-11-21T09:43:52;7.70;;;1.27;;
22388;SDS011;11362;48.102;11.620;2023-11-21T09:46:22;4.10;;;1.10;;
22388;SDS011;11362;48.102;11.620;2023-11-21T09:48:50;3.23;;;0.93;;
22388;SDS011;11362;48.102;11.620;2023-11-21T09:51:16;8.87;;;1.10;;
22388;SDS011;11362;48.102;11.620;2023-11-21T09:53:44;3.73;;;0.87;;
22388;SDS011;11362;48.102;11.620;2023-11-21T09:56:13;2.60;;;1.00;;
22388;SDS011;11362;48.102;11.620;2023-11-21T09:58:39;6.93;;;0.90;;
22388;SDS011;11362;48.102;11.620;2023-11-21T10:01:04;3.90;;;1.37;;
22388;SDS011;11362;48.102;11.620;2023-11-21T10:03:30;7.53;;;1.30;;
22388;SDS011;11362;48.102;11.620;2023-11-21T10:05:56;2.47;;;1.00;;
22388;SDS011;11362;48.102;11.620;2023-11-21T10:08:22;5.67;;;1.37;;
22388;SDS011;11362;48.102;11.620;2023-11-21T10:10:49;3.73;;;1.00;;
22388;SDS011;11362;48.102;11.620;2023-11-21T10:13:18;5.00;;;1.07;;
22388;SDS011;11362;48.102;11.620;2023-11-21T10:15:43;4.27;;;1.20;;
22388;SDS011;11362;48.102;11.620;2023-11-21T10:18:14;3.27;;;1.33;;
22388;SDS011;11362;48.102;11.620;2023-11-21T10:20:40;4.23;;;1.40;;
22388;SDS011;11362;48.102;11.620;2023-11-21T10:23:05;5.37;;;1.23;;
22388;SDS011;11362;48.102;11.620;2023-11-21T10:25:30;4.33;;;1.40;;
22388;SDS011;11362;48.102;11.620;2023-11-21T10:27:59;4.47;;;1.10;;
22388;SDS011;11362;48.102;11.620;2023-11-21T10:30:28;6.17;;;1.10;;
22388;SDS011;11362;48.102;11.620;2023-11-21T10:33:00;6.27;;;1.27;;
22388;SDS011;11362;48.102;11.620;2023-11-21T10:35:25;4.17;;;1.43;;
22388;SDS011;11362;48.102;11.620;2023-11-21T10:38:03;5.17;;;1.47;;
22388;SDS011;11362;48.102;11.620;2023-11-21T10:40:29;2.90;;;1.30;;
22388;SDS011;11362;48.102;11.620;2023-11-21T10:42:54;3.83;;;1.13;;
22388;SDS011;11362;48.102;11.620;2023-11-21T10:45:19;4.27;;;1.37;;
22388;SDS011;11362;48.102;11.620;2023-11-21T10:47:45;4.30;;;1.30;;
22388;SDS011;11362;48.102;11.620;2023-11-21T10:50:10;3.53;;;1.13;;
22388;SDS011;11362;48.102;11.620;2023-11-21T10:52:36;3.50;;;0.97;;
22388;SDS011;11362;48.102;11.620;2023-11-21T10:55:17;6.13;;;1.70;;
22388;SDS011;11362;48.102;11.620;2023-11-21T10:57:43;2.73;;;1.40;;
22388;SDS011;11362;48.102;11.620;2023-11-21T11:00:11;3.27;;;1.03;;
22388;SDS011;11362;48.102;11.620;2023-11-21T11:02:37;1.47;;;1.03;;
22388;SDS011;11362;48.102;11.620;2023-11-21T11:05:03;5.40;;;1.30;;
22388;SDS011;11362;48.102;11.620;2023-11-21T11:07:29;5.30;;;1.27;;
22388;SDS011;11362;48.102;11.620;2023-11-21T11:09:55;3.97;;;1.30;;
22388;SDS011;11362;48.102;11.620;2023-11-21T11:12:21;2.40;;;1.03;;
22388;SDS011;11362;48.102;11.620;2023-11-21T11:14:47;2.83;;;1.07;;
22388;SDS011;11362;48.102;11.620;2023-11-21T11:17:13;2.93;;;1.00;;
22388;SDS011;11362;48.102;11.620;2023-11-21T11:19:39;3.07;;;0.63;;
22388;SDS011;11362;48.102;11.620;2023-11-21T11:24:59;4.90;;;1.20;;
22388;SDS011;11362;48.102;11.620;2023-11-21T11:35:57;6.47;;;2.03;;
22388;SDS011;11362;48.102;11.620;2023-11-21T11:38:32;41.03;;;31.43;;
22388;SDS011;11362;48.102;11.620;2023-11-21T11:40:59;59.47;;;40.57;;
22388;SDS011;11362;48.102;11.620;2023-11-21T11:43:27;50.07;;;36.53;;
22388;SDS011;11362;48.102;11.620;2023-11-21T11:45:55;45.70;;;35.37;;
22388;SDS011;11362;48.102;11.620;2023-11-21T11:48:21;45.03;;;32.27;;
22388;SDS011;11362;48.102;11.620;2023-11-21T11:51:00;41.90;;;31.20;;
22388;SDS011;11362;48.102;11.620;2023-11-21T11:53:27;37.83;;;26.93;;
22388;SDS011;11362;48.102;11.620;2023-11-21T11:58:47;33.77;;;26.30;;
22388;SDS011;11362;48.102;11.620;2023-11-21T12:01:13;37.70;;;24.37;;
22388;SDS011;11362;48.102;11.620;2023-11-21T12:03:38;34.33;;;22.60;;
22388;SDS011;11362;48.102;11.620;2023-11-21T12:06:04;35.67;;;21.87;;
22388;SDS011;11362;48.102;11.620;2023-11-21T12:08:30;32.03;;;20.93;;
22388;SDS011;11362;48.102;11.620;2023-11-21T12:10:55;31.00;;;20.43;;
22388;SDS011;11362;48.102;11.620;2023-11-21T12:13:22;31.00;;;19.20;;
22388;SDS011;11362;48.102;11.620;2023-11-21T12:15:47;29.73;;;18.50;;
22388;SDS011;11362;48.102;11.620;2023-11-21T12:18:13;33.80;;;19.63;;
22388;SDS011;11362;48.102;11.620;2023-11-21T12:20:38;30.83;;;18.23;;
22388;SDS011;11362;48.102;11.620;2023-11-21T12:23:04;34.50;;;18.50;;
22388;SDS011;11362;48.102;11.620;2023-11-21T12:25:30;30.30;;;17.93;;
22388;SDS011;11362;48.102;11.620;2023-11-21T12:27:56;29.90;;;16.47;;
22388;SDS011;11362;48.102;11.620;2023-11-21T12:30:22;21.07;;;15.73;;
22388;SDS011;11362;48.102;11.620;2023-11-21T12:32:51;34.27;;;16.47;;
22388;SDS011;11362;48.102;11.620;2023-11-21T12:35:18;25.77;;;16.17;;
22388;SDS011;11362;48.102;11.620;2023-11-21T12:37:45;20.90;;;14.47;;
22388;SDS011;11362;48.102;11.620;2023-11-21T12:40:11;33.07;;;15.77;;
22388;SDS011;11362;48.102;11.620;2023-11-21T12:42:36;21.13;;;14.17;;
22388;SDS011;11362;48.102;11.620;2023-11-21T12:45:06;22.37;;;14.73;;
22388;SDS011;11362;48.102;11.620;2023-11-21T12:47:51;21.57;;;13.50;;
22388;SDS011;11362;48.102;11.620;2023-11-21T12:50:24;22.73;;;12.60;;
22388;SDS011;11362;48.102;11.620;2023-11-21T12:52:51;26.33;;;12.67;;
22388;SDS011;11362;48.102;11.620;2023-11-21T12:55:17;24.20;;;12.97;;
22388;SDS011;11362;48.102;11.620;2023-11-21T12:57:44;19.80;;;12.33;;
22388;SDS011;11362;48.102;11.620;2023-11-21T13:00:10;20.73;;;11.60;;
22388;SDS011;11362;48.102;11.620;2023-11-21T13:02:37;18.43;;;11.97;;
22388;SDS011;11362;48.102;11.620;2023-11-21T13:05:02;17.43;;;11.63;;
22388;SDS011;11362;48.102;11.620;2023-11-21T13:07:28;18.13;;;10.60;;
22388;SDS011;11362;48.102;11.620;2023-11-21T13:09:53;25.13;;;11.70;;
22388;SDS011;11362;48.102;11.620;2023-11-21T13:12:23;18.67;;;11.10;;
22388;SDS011;11362;48.102;11.620;2023-11-21T13:14:49;15.37;;;9.90;;
22388;SDS011;11362;48.102;11.620;2023-11-21T13:17:14;17.63;;;10.77;;
22388;SDS011;11362;48.102;11.620;2023-11-21T13:19:39;17.57;;;10.50;;
22388;SDS011;11362;48.102;11.620;2023-11-21T13:22:05;15.83;;;9.67;;
22388;SDS011;11362;48.102;11.620;2023-11-21T13:24:30;18.97;;;9.57;;
22388;SDS011;11362;48.102;11.620;2023-11-21T13:26:55;16.00;;;9.10;;
22388;SDS011;11362;48.102;11.620;2023-11-21T13:29:20;15.30;;;8.27;;
22388;SDS011;11362;48.102;11.620;2023-11-21T13:31:46;11.03;;;7.77;;
22388;SDS011;11362;48.102;11.620;2023-11-21T13:34:11;13.90;;;8.30;;
22388;SDS011;11362;48.102;11.620;2023-11-21T13:36:36;13.83;;;7.50;;
22388;SDS011;11362;48.102;11.620;2023-11-21T13:39:02;12.33;;;7.50;;
22388;SDS011;11362;48.102;11.620;2023-11-21T13:41:27;9.47;;;7.13;;
22388;SDS011;11362;48.102;11.620;2023-11-21T13:43:52;13.53;;;6.90;;
22388;SDS011;11362;48.102;11.620;2023-11-21T13:46:18;12.33;;;6.00;;
22388;SDS011;11362;48.102;11.620;2023-11-21T13:48:43;10.87;;;6.40;;
22388;SDS011;11362;48.102;11.620;2023-11-21T13:51:08;13.40;;;6.40;;
22388;SDS011;11362;48.102;11.620;2023-11-21T13:53:34;11.20;;;6.17;;
22388;SDS011;11362;48.102;11.620;2023-11-21T13:55:59;14.73;;;6.20;;
22388;SDS011;11362;48.102;11.620;2023-11-21T13:58:25;12.50;;;6.60;;
22388;SDS011;11362;48.102;11.620;2023-11-21T14:00:50;8.90;;;6.03;;
22388;SDS011;11362;48.102;11.620;2023-11-21T14:03:15;9.10;;;6.10;;
22388;SDS011;11362;48.102;11.620;2023-11-21T14:05:41;14.87;;;6.47;;
22388;SDS011;11362;48.102;11.620;2023-11-21T14:08:06;8.50;;;5.40;;
22388;SDS011;11362;48.102;11.620;2023-11-21T14:10:32;8.07;;;5.30;;
22388;SDS011;11362;48.102;11.620;2023-11-21T14:12:57;9.80;;;6.07;;
22388;SDS011;11362;48.102;11.620;2023-11-21T14:15:22;10.90;;;6.13;;
22388;SDS011;11362;48.102;11.620;2023-11-21T14:17:47;8.13;;;5.47;;
22388;SDS011;11362;48.102;11.620;2023-11-21T14:20:13;8.20;;;4.43;;
22388;SDS011;11362;48.102;11.620;2023-11-21T14:22:38;8.43;;;4.90;;
22388;SDS011;11362;48.102;11.620;2023-11-21T14:25:03;10.80;;;5.17;;
22388;SDS011;11362;48.102;11.620;2023-11-21T14:27:29;9.17;;;4.60;;
22388;SDS011;11362;48.102;11.620;2023-11-21T14:29:54;10.73;;;5.23;;
22388;SDS011;11362;48.102;11.620;2023-11-21T14:32:19;7.57;;;4.87;;
22388;SDS011;11362;48.102;11.620;2023-11-21T14:34:45;5.23;;;3.73;;
22388;SDS011;11362;48.102;11.620;2023-11-21T14:37:10;7.90;;;3.40;;